createdAt,value
2023-04-02T00:00:20.163Z,101195.22
2023-04-02T00:03:23.100Z,101194.34
2023-04-02T00:06:39.919Z,101202.34
2023-04-02T00:09:43.106Z,101202.34
2023-04-02T00:13:00.827Z,101204.22
2023-04-02T00:16:07.305Z,101206.03
2023-04-02T00:19:16.086Z,101208.69
2023-04-02T00:22:23.401Z,101214.06
2023-04-02T00:25:29.087Z,101219.38
2023-04-02T00:28:32.324Z,101219.47
2023-04-02T00:31:42.152Z,101226.56
2023-04-02T00:34:45.170Z,101215.94
2023-04-02T00:37:48.281Z,101221.25
2023-04-02T00:40:52.952Z,101234.56
2023-04-02T00:43:57.633Z,101238.97
2023-04-02T00:47:09.183Z,101240.75
2023-04-02T00:50:22.911Z,101253.22
2023-04-02T00:53:28.483Z,101246.16
2023-04-02T00:56:35.445Z,101251.50
2023-04-02T00:59:52.200Z,101257.69
2023-04-02T01:03:34.704Z,101259.56
2023-04-02T01:06:39.927Z,101265.72
2023-04-02T01:10:01.205Z,101260.41
2023-04-02T01:13:15.699Z,101271.06
2023-04-02T01:16:24.979Z,101281.69
2023-04-02T01:19:50.455Z,101271.94
2023-04-02T01:23:02.507Z,101285.25
2023-04-02T01:26:15.089Z,101289.69
2023-04-02T01:29:22.968Z,101295.81
2023-04-02T01:32:29.096Z,101299.44
2023-04-02T01:35:38.566Z,101299.44
2023-04-02T01:38:50.079Z,101311.00
2023-04-02T01:42:02.596Z,101306.63
2023-04-02T01:45:10.142Z,101307.53
2023-04-02T01:48:17.422Z,101314.59
2023-04-02T01:51:28.209Z,101326.16
2023-04-02T01:54:31.381Z,101323.50
2023-04-02T01:57:34.464Z,101327.03
2023-04-02T02:00:46.609Z,101335.91
2023-04-02T02:03:51.522Z,101341.25
2023-04-02T02:06:54.828Z,101348.28
2023-04-02T02:09:58.231Z,101354.47
2023-04-02T02:13:02.255Z,101355.44
2023-04-02T02:16:12.789Z,101366.94
2023-04-02T02:19:24.991Z,101367.88
2023-04-02T02:22:31.621Z,101369.59
2023-04-02T02:25:37.094Z,101374.09
2023-04-02T02:28:43.574Z,101383.03
2023-04-02T02:31:53.625Z,101383.03
2023-04-02T02:35:02.796Z,101393.69
2023-04-02T02:38:29.166Z,101401.63
2023-04-02T02:41:43.335Z,101406.06
2023-04-02T02:44:50.461Z,101423.78
2023-04-02T02:47:57.213Z,101423.78
2023-04-02T02:51:01.478Z,101419.34
2023-04-02T02:54:06.642Z,101422.84
2023-04-02T02:57:15.422Z,101429.06
2023-04-02T03:00:19.846Z,101427.28
2023-04-02T03:03:28.559Z,101439.63
2023-04-02T03:06:36.616Z,101443.19
2023-04-02T03:09:47.126Z,101441.41
2023-04-02T03:12:55.782Z,101450.19
2023-04-02T03:16:05.518Z,101450.13
2023-04-02T03:19:25.685Z,101460.72
2023-04-02T03:22:37.317Z,101464.25
2023-04-02T03:25:44.493Z,101469.53
2023-04-02T03:28:51.619Z,101479.25
2023-04-02T03:31:58.814Z,101483.66
2023-04-02T03:35:15.905Z,101487.16
2023-04-02T03:38:26.047Z,101487.13
2023-04-02T03:41:35.994Z,101492.47
2023-04-02T03:44:45.309Z,101491.53
2023-04-02T03:47:54.072Z,101499.50
2023-04-02T03:51:04.216Z,101504.84
2023-04-02T03:54:14.593Z,101509.28
2023-04-02T03:57:26.592Z,101515.50
2023-04-02T04:00:36.508Z,101515.50
2023-04-02T04:03:44.273Z,101519.94
2023-04-02T04:06:52.703Z,101524.38
2023-04-02T04:09:56.522Z,101541.25
2023-04-02T04:13:05.041Z,101547.47
2023-04-02T04:16:13.015Z,101547.47
2023-04-02T04:19:21.878Z,101553.75
2023-04-02T04:22:32.634Z,101559.06
2023-04-02T04:25:59.931Z,101553.78
2023-04-02T04:29:25.006Z,101556.50
2023-04-02T04:32:33.814Z,101570.75
2023-04-02T04:35:49.392Z,101570.75
2023-04-02T04:38:59.354Z,101589.41
2023-04-02T04:42:08.186Z,101586.78
2023-04-02T04:45:24.031Z,101595.66
2023-04-02T04:48:35.320Z,101586.78
2023-04-02T04:51:46.309Z,101603.63
2023-04-02T04:54:51.229Z,101592.09
2023-04-02T04:58:01.824Z,101606.38
2023-04-02T05:01:11.427Z,101617.03
2023-04-02T05:04:20.239Z,101628.59
2023-04-02T05:07:27.391Z,101629.47
2023-04-02T05:10:38.902Z,101634.78
2023-04-02T05:13:47.611Z,101642.78
2023-04-02T05:16:57.429Z,101651.66
2023-04-02T05:20:08.116Z,101654.25
2023-04-02T05:23:19.935Z,101664.00
2023-04-02T05:26:30.963Z,101668.38
2023-04-02T05:29:39.702Z,101665.72
2023-04-02T05:32:48.174Z,101678.06
2023-04-02T05:35:58.781Z,101684.28
2023-04-02T05:39:02.603Z,101688.72
2023-04-02T05:42:21.673Z,101687.78
2023-04-02T05:45:35.667Z,101701.09
2023-04-02T05:48:43.442Z,101695.84
2023-04-02T05:51:54.127Z,101705.59
2023-04-02T05:55:03.873Z,101698.50
2023-04-02T06:01:37.621Z,101716.25
2023-04-02T06:04:51.458Z,101726.91
2023-04-02T06:07:59.808Z,101726.84
2023-04-02T06:11:09.535Z,101746.38
2023-04-02T06:14:17.874Z,101740.09
2023-04-02T06:17:23.272Z,101744.59
2023-04-02T06:20:27.453Z,101744.59
2023-04-02T06:23:38.023Z,101752.53
2023-04-02T06:26:46.211Z,101767.69
2023-04-02T06:29:59.009Z,101768.59
2023-04-02T06:33:06.227Z,101777.41
2023-04-02T06:36:12.755Z,101783.66
2023-04-02T06:39:20.411Z,101783.66
2023-04-02T06:42:28.619Z,101792.50
2023-04-02T06:45:47.983Z,101794.31
2023-04-02T06:49:23.758Z,101801.38
2023-04-02T06:52:37.174Z,101819.13
2023-04-02T06:55:47.876Z,101809.34
2023-04-02T06:58:54.374Z,101808.47
2023-04-02T07:02:03.716Z,101825.31
2023-04-02T07:05:09.929Z,101823.56
2023-04-02T07:08:17.153Z,101830.69
2023-04-02T07:11:22.954Z,101834.22
2023-04-02T07:14:28.667Z,101838.66
2023-04-02T07:17:33.075Z,101844.88
2023-04-02T07:20:37.621Z,101853.78
2023-04-02T07:23:44.593Z,101859.09
2023-04-02T07:26:48.277Z,101862.66
2023-04-02T07:29:51.264Z,101872.41
2023-04-02T07:32:55.732Z,101871.53
2023-04-02T07:35:59.622Z,101883.06
2023-04-02T07:39:02.822Z,101883.94
2023-04-02T07:42:05.774Z,101892.78
2023-04-02T07:45:10.118Z,101894.59
2023-04-02T07:48:15.363Z,101894.59
2023-04-02T07:51:20.713Z,101898.16
2023-04-02T07:54:23.650Z,101911.50
2023-04-02T07:57:26.623Z,101918.59
2023-04-02T08:00:29.705Z,101926.59
2023-04-02T08:03:34.142Z,101934.59
2023-04-02T08:06:37.156Z,101944.34
2023-04-02T08:09:40.106Z,101937.25
2023-04-02T08:12:43.007Z,101947.00
2023-04-02T08:15:45.992Z,101943.47
2023-04-02T08:18:50.287Z,101951.41
2023-04-02T08:21:54.378Z,101943.41
2023-04-02T08:24:57.891Z,101952.34
2023-04-02T08:28:01.593Z,101963.88
2023-04-02T08:31:05.144Z,101947.00
2023-04-02T08:34:09.677Z,101955.00
2023-04-02T08:37:13.784Z,101960.34
2023-04-02T08:40:25.993Z,101968.31
2023-04-02T08:43:46.833Z,101966.56
2023-04-02T08:46:53.520Z,101982.53
2023-04-02T08:50:03.396Z,101989.63
2023-04-02T08:53:09.358Z,101986.97
2023-04-02T08:56:20.058Z,101983.38
2023-04-02T08:59:31.885Z,101980.72
2023-04-02T09:02:40.651Z,101984.19
2023-04-02T09:05:46.781Z,101982.47
2023-04-02T09:08:52.412Z,101986.91
2023-04-02T09:12:00.650Z,101996.69
2023-04-02T09:15:19.037Z,102015.34
2023-04-02T09:18:22.409Z,102023.34
2023-04-02T09:21:35.845Z,102024.22
2023-04-02T09:24:38.804Z,102024.22
2023-04-02T09:27:41.788Z,102029.56
2023-04-02T09:31:03.322Z,102030.44
2023-04-02T09:34:28.368Z,102023.34
2023-04-02T09:37:33.167Z,102041.97
2023-04-02T09:40:44.854Z,102042.81
2023-04-02T09:43:47.791Z,102044.56
2023-04-02T09:46:56.232Z,102045.47
2023-04-02T09:50:15.272Z,102039.25
2023-04-02T09:53:29.988Z,102058.81
2023-04-02T09:56:34.150Z,102064.13
2023-04-02T09:59:37.519Z,102070.34
2023-04-02T10:02:41.712Z,102077.47
2023-04-02T10:05:44.995Z,102082.78
2023-04-02T10:08:49.521Z,102089.06
2023-04-02T10:11:55.648Z,102078.41
2023-04-02T10:15:00.344Z,102091.72
2023-04-02T10:18:13.531Z,102093.44
2023-04-02T10:21:19.228Z,102089.00
2023-04-02T10:24:24.481Z,102092.53
2023-04-02T10:27:33.793Z,102094.28
2023-04-02T10:30:45.076Z,102098.78
2023-04-02T10:33:52.608Z,102108.53
2023-04-02T10:36:59.253Z,102110.38
2023-04-02T10:40:12.872Z,102102.38
2023-04-02T10:43:45.021Z,102097.03
2023-04-02T10:46:59.196Z,102100.63
2023-04-02T10:50:20.370Z,102101.50
2023-04-02T10:53:34.897Z,102108.59
2023-04-02T10:56:49.993Z,102114.81
2023-04-02T10:59:59.807Z,102131.69
2023-04-02T11:03:11.427Z,102129.03
2023-04-02T11:06:20.090Z,102121.03
2023-04-02T11:09:27.776Z,102123.63
2023-04-02T11:12:41.708Z,102121.03
2023-04-02T11:15:45.691Z,102120.16
2023-04-02T11:19:10.424Z,102124.56
2023-04-02T11:22:18.172Z,102125.41
2023-04-02T11:25:24.533Z,102123.69
2023-04-02T11:28:31.556Z,102144.06
2023-04-02T11:31:35.069Z,102144.13
2023-04-02T11:35:07.074Z,102152.06
2023-04-02T11:38:55.003Z,102162.72
2023-04-02T11:42:06.285Z,102157.41
2023-04-02T11:45:52.591Z,102152.94
2023-04-02T11:49:36.537Z,102161.81
2023-04-02T11:52:53.018Z,102172.47
2023-04-02T11:56:21.145Z,102182.25
2023-04-02T11:59:34.469Z,102178.72
2023-04-02T12:02:59.454Z,102180.53
2023-04-02T12:06:13.301Z,102181.38
2023-04-02T12:09:21.454Z,102192.03
2023-04-02T12:12:28.517Z,102203.63
2023-04-02T12:15:46.271Z,102201.84
2023-04-02T12:18:54.055Z,102200.97
2023-04-02T12:22:00.578Z,102205.38
2023-04-02T12:25:05.900Z,102214.25
2023-04-02T12:28:18.980Z,102204.47
2023-04-02T12:31:25.322Z,102216.00
2023-04-02T12:34:30.175Z,102225.78
2023-04-02T12:37:34.506Z,102223.16
2023-04-02T12:40:37.738Z,102224.03
2023-04-02T12:43:41.001Z,102214.28
2023-04-02T12:46:44.639Z,102239.16
2023-04-02T12:49:48.107Z,102230.28
2023-04-02T12:52:55.000Z,102233.81
2023-04-02T12:55:58.051Z,102237.38
2023-04-02T12:59:02.067Z,102243.59
2023-04-02T13:02:18.781Z,102248.94
2023-04-02T13:05:36.266Z,102245.34
2023-04-02T13:08:43.186Z,102245.34
2023-04-02T13:11:46.123Z,102245.34
2023-04-02T13:14:53.719Z,102257.81
2023-04-02T13:18:08.923Z,102251.59
2023-04-02T13:21:28.446Z,102260.50
2023-04-02T13:24:34.647Z,102257.81
2023-04-02T13:27:37.959Z,102265.81
2023-04-02T13:30:40.966Z,102263.16
2023-04-02T13:33:44.329Z,102273.81
2023-04-02T13:36:47.639Z,102281.84
2023-04-02T13:39:51.922Z,102278.28
2023-04-02T13:42:54.943Z,102279.16
2023-04-02T13:46:00.931Z,102269.41
2023-04-02T13:49:04.017Z,102288.97
2023-04-02T13:52:15.062Z,102291.56
2023-04-02T13:55:22.053Z,102296.00
2023-04-02T13:58:25.013Z,102296.00
2023-04-02T14:01:28.096Z,102300.47
2023-04-02T14:04:34.546Z,102309.34
2023-04-02T14:07:52.075Z,102304.06
2023-04-02T14:11:08.660Z,102320.94
2023-04-02T14:14:25.518Z,102320.06
2023-04-02T14:17:38.230Z,102318.28
2023-04-02T14:20:51.592Z,102319.22
2023-04-02T14:24:07.350Z,102323.59
2023-04-02T14:27:23.758Z,102335.19
2023-04-02T14:30:35.271Z,102332.53
2023-04-02T14:33:45.509Z,102335.19
2023-04-02T14:37:00.799Z,102347.59
2023-04-02T14:40:14.421Z,102331.66
2023-04-02T14:43:24.760Z,102345.84
2023-04-02T14:46:29.472Z,102354.75
2023-04-02T14:49:40.038Z,102347.63
2023-04-02T14:52:47.268Z,102345.84
2023-04-02T14:55:53.613Z,102349.41
2023-04-02T14:59:12.835Z,102346.75
2023-04-02T15:02:36.718Z,102357.41
2023-04-02T15:05:43.728Z,102368.06
2023-04-02T15:08:58.850Z,102366.28
2023-04-02T15:12:14.781Z,102366.25
2023-04-02T15:15:39.435Z,102368.00
2023-04-02T15:18:43.649Z,102367.13
2023-04-02T15:22:16.316Z,102362.69
2023-04-02T15:25:30.689Z,102371.56
2023-04-02T15:28:42.681Z,102377.78
2023-04-02T15:31:48.134Z,102388.44
2023-04-02T15:34:57.854Z,102400.88
2023-04-02T15:38:06.680Z,102393.81
2023-04-02T15:41:16.221Z,102403.56
2023-04-02T15:44:19.150Z,102400.88
2023-04-02T15:47:36.814Z,102406.22
2023-04-02T15:50:48.250Z,102419.53
2023-04-02T15:54:00.549Z,102417.75
2023-04-02T15:57:18.080Z,102433.75
2023-04-02T16:00:30.719Z,102431.09
2023-04-02T16:04:12.279Z,102429.31
2023-04-02T16:07:30.317Z,102420.44
2023-04-02T16:10:41.984Z,102436.41
2023-04-02T16:13:45.432Z,102431.09
2023-04-02T16:16:51.060Z,102437.28
2023-04-02T16:20:02.417Z,102445.28
2023-04-02T16:23:12.167Z,102463.81
2023-04-02T16:26:40.927Z,102460.72
2023-04-02T16:30:00.028Z,102465.53
2023-04-02T16:33:14.563Z,102461.22
2023-04-02T16:36:31.561Z,102471.06
2023-04-02T16:39:43.451Z,102487.03
2023-04-02T16:42:52.924Z,102492.22
2023-04-02T16:46:04.011Z,102488.50
2023-04-02T16:49:16.186Z,102495.47
2023-04-02T16:52:35.387Z,102503.34
2023-04-02T16:55:51.223Z,102504.09
2023-04-02T16:59:02.206Z,102505.78
2023-04-02T17:02:22.209Z,102512.78
2023-04-02T17:05:32.504Z,102514.47
2023-04-02T17:08:44.153Z,102519.69
2023-04-02T17:11:50.909Z,102533.81
2023-04-02T17:14:58.049Z,102529.31
2023-04-02T17:18:02.808Z,102534.53
2023-04-02T17:21:08.565Z,102540.72
2023-04-02T17:24:24.444Z,102545.09
2023-04-02T17:27:32.346Z,102551.28
2023-04-02T17:30:39.907Z,102560.13
2023-04-02T17:33:42.753Z,102557.44
2023-04-02T17:36:56.145Z,102567.16
2023-04-02T17:40:09.921Z,102569.78
2023-04-02T17:43:18.968Z,102579.50
2023-04-02T17:46:29.914Z,102583.03
2023-04-02T17:49:40.285Z,102574.09
2023-04-02T17:52:51.446Z,102582.97
2023-04-02T17:56:06.928Z,102584.75
2023-04-02T17:59:27.050Z,102587.38
2023-04-02T18:02:49.156Z,102596.22
2023-04-02T18:05:58.687Z,102597.09
2023-04-02T18:09:19.359Z,102606.88
2023-04-02T18:12:42.365Z,102616.59
2023-04-02T18:15:53.555Z,102621.94
2023-04-02T18:19:16.686Z,102639.69
2023-04-02T18:22:27.473Z,102637.03
2023-04-02T18:25:44.224Z,102638.78
2023-04-02T18:29:00.290Z,102642.31
2023-04-02T18:32:19.807Z,102647.66
2023-04-02T18:35:28.128Z,102654.75
2023-04-02T18:38:39.191Z,102658.28
2023-04-02T18:41:55.968Z,102673.31
2023-04-02T18:45:09.737Z,102671.50
2023-04-02T18:48:29.292Z,102674.13
2023-04-02T18:51:37.991Z,102690.09
2023-04-02T18:54:43.978Z,102682.09
2023-04-02T18:57:49.727Z,102693.59
2023-04-02T19:00:54.967Z,102696.25
2023-04-02T19:04:03.728Z,102705.19
2023-04-02T19:07:15.855Z,102710.53
2023-04-02T19:10:30.082Z,102722.91
2023-04-02T19:13:33.086Z,102717.59
2023-04-02T19:17:10.455Z,102728.25
2023-04-02T19:20:23.548Z,102728.25
2023-04-02T19:23:43.630Z,102743.34
2023-04-02T19:26:55.207Z,102746.88
2023-04-02T19:30:08.234Z,102761.09
2023-04-02T19:33:21.589Z,102761.09
2023-04-02T19:36:41.555Z,102764.59
2023-04-02T19:40:09.322Z,102769.03
2023-04-02T19:43:12.715Z,102777.91
2023-04-02T19:46:16.141Z,102782.31
2023-04-02T19:49:30.843Z,102786.69
2023-04-02T19:52:33.710Z,102790.25
2023-04-02T19:55:36.868Z,102787.56
2023-04-02T19:58:39.980Z,102795.53
2023-04-02T20:01:42.889Z,102797.28
2023-04-02T20:04:47.237Z,102808.81
2023-04-02T20:07:50.091Z,102811.47
2023-04-02T20:10:53.006Z,102814.09
2023-04-02T20:13:56.050Z,102808.75
2023-04-02T20:16:59.018Z,102816.75
2023-04-02T20:20:04.425Z,102813.19
2023-04-02T20:23:07.533Z,102820.31
2023-04-02T20:26:11.591Z,102834.50
2023-04-02T20:29:14.495Z,102829.16
2023-04-02T20:32:17.718Z,102838.00
2023-04-02T20:35:22.287Z,102832.69
2023-04-02T20:38:25.217Z,102843.34
2023-04-02T20:41:28.219Z,102839.78
2023-04-02T20:44:31.355Z,102851.34
2023-04-02T20:47:34.423Z,102855.75
2023-04-02T20:50:38.972Z,102866.38
2023-04-02T20:53:42.197Z,102855.72
2023-04-02T20:56:45.385Z,102865.44
2023-04-02T20:59:48.280Z,102868.16
2023-04-02T21:02:51.207Z,102869.88
2023-04-02T21:05:55.534Z,102876.06
2023-04-02T21:08:59.028Z,102875.19
2023-04-02T21:12:01.919Z,102881.38
2023-04-02T21:15:05.166Z,102876.91
2023-04-02T21:18:08.079Z,102890.22
2023-04-02T21:21:14.357Z,102892.00
2023-04-02T21:24:17.295Z,102897.28
2023-04-02T21:27:22.263Z,102899.06
2023-04-02T21:30:25.189Z,102903.47
2023-04-02T21:33:28.148Z,102898.16
2023-04-02T21:36:34.836Z,102896.38
2023-04-02T21:39:38.308Z,102906.16
2023-04-02T21:42:41.142Z,102899.91
2023-04-02T21:45:43.984Z,102903.47
2023-04-02T21:48:47.433Z,102903.47
2023-04-02T21:51:52.478Z,102900.81
2023-04-02T21:54:55.325Z,102907.06
2023-04-02T21:57:58.194Z,102914.16
2023-04-02T22:01:01.125Z,102912.41
2023-04-02T22:04:06.015Z,102915.06
2023-04-02T22:07:10.443Z,102922.16
2023-04-02T22:10:13.374Z,102917.75
2023-04-02T22:13:16.355Z,102924.81
2023-04-02T22:16:20.829Z,102932.81
2023-04-02T22:19:23.939Z,102931.09
2023-04-02T22:22:28.528Z,102931.09
2023-04-02T22:25:31.810Z,102934.63
2023-04-02T22:28:35.281Z,102933.75
2023-04-02T22:31:38.740Z,102945.31
2023-04-02T22:34:45.591Z,102945.31
2023-04-02T22:37:49.923Z,102948.88
2023-04-02T22:40:52.855Z,102963.97
2023-04-02T22:43:57.224Z,102959.53
2023-04-02T22:47:00.149Z,102956.00
2023-04-02T22:50:03.163Z,102964.00
2023-04-02T22:53:07.462Z,102956.88
2023-04-02T22:56:12.283Z,102958.66
2023-04-02T22:59:15.500Z,102958.66
2023-04-02T23:02:18.465Z,102965.81
2023-04-02T23:05:21.379Z,102964.00
2023-04-02T23:08:25.673Z,102972.00
2023-04-02T23:11:29.128Z,102981.81
2023-04-02T23:14:32.022Z,102968.47
2023-04-02T23:17:35.937Z,102973.81
2023-04-02T23:20:38.861Z,102980.00
2023-04-02T23:23:43.457Z,102979.16
2023-04-02T23:26:46.302Z,102979.16
2023-04-02T23:29:49.533Z,102979.16
2023-04-02T23:32:52.448Z,102980.06
2023-04-02T23:35:55.352Z,102988.97
2023-04-02T23:39:01.741Z,102980.94
2023-04-02T23:42:05.001Z,102982.72
2023-04-02T23:45:08.843Z,102988.06
2023-04-02T23:48:11.730Z,102990.75
2023-04-02T23:51:15.085Z,102990.75
2023-04-02T23:54:19.537Z,102991.63
2023-04-02T23:57:22.545Z,102988.06
